sensor_id;sensor_type;location;lat;lon;timestamp;pressure;altitude;pressure_sealevel;temperature;humidity
64644;BME280;51056;50.330;7.914;2023-02-23T00:02:18;100322.91;;;6.82;nan
64644;BME280;51056;50.330;7.914;2023-02-23T00:05:21;100319.53;;;6.80;nan
64644;BME280;51056;50.330;7.914;2023-02-23T00:08:25;100325.59;;;6.81;nan
64644;BME280;51056;50.330;7.914;2023-02-23T00:11:30;100323.03;;;6.79;nan
64644;BME280;51056;50.330;7.914;2023-02-23T00:14:36;100320.50;;;6.78;nan
64644;BME280;51056;50.330;7.914;2023-02-23T00:17:42;100325.59;;;6.81;nan
64644;BME280;51056;50.330;7.914;2023-02-23T00:20:54;100315.19;;;6.81;nan
64644;BME280;51056;50.330;7.914;2023-02-23T00:24:01;100323.75;;;6.83;nan
64644;BME280;51056;50.330;7.914;2023-02-23T00:27:05;100323.75;;;6.83;nan
64644;BME280;51056;50.330;7.914;2023-02-23T00:30:14;100316.75;;;6.85;nan
64644;BME280;51056;50.330;7.914;2023-02-23T00:33:17;100315.06;;;6.84;nan
64644;BME280;51056;50.330;7.914;2023-02-23T00:36:21;100315.81;;;6.86;nan
64644;BME280;51056;50.330;7.914;2023-02-23T00:39:25;100313.44;;;6.81;nan
64644;BME280;51056;50.330;7.914;2023-02-23T00:42:30;100311.56;;;6.85;nan
64644;BME280;51056;50.330;7.914;2023-02-23T00:45:37;100314.94;;;6.87;nan
64644;BME280;51056;50.330;7.914;2023-02-23T00:48:41;100314.16;;;6.85;nan
64644;BME280;51056;50.330;7.914;2023-02-23T00:51:46;100310.84;;;6.81;nan
64644;BME280;51056;50.330;7.914;2023-02-23T00:54:49;100320.31;;;6.82;nan
64644;BME280;51056;50.330;7.914;2023-02-23T00:57:53;100318.53;;;6.83;nan
64644;BME280;51056;50.330;7.914;2023-02-23T01:00:57;100314.38;;;6.79;nan
64644;BME280;51056;50.330;7.914;2023-02-23T01:04:04;100311.56;;;6.85;nan
64644;BME280;51056;50.330;7.914;2023-02-23T01:07:08;100315.06;;;6.84;nan
64644;BME280;51056;50.330;7.914;2023-02-23T01:10:17;100316.03;;;6.81;nan
64644;BME280;51056;50.330;7.914;2023-02-23T01:13:22;100320.38;;;6.81;nan
64644;BME280;51056;50.330;7.914;2023-02-23T01:16:30;100315.94;;;6.83;nan
64644;BME280;51056;50.330;7.914;2023-02-23T01:19:34;100318.53;;;6.83;nan
64644;BME280;51056;50.330;7.914;2023-02-23T01:22:44;100317.72;;;6.82;nan
64644;BME280;51056;50.330;7.914;2023-02-23T01:25:49;100320.38;;;6.81;nan
64644;BME280;51056;50.330;7.914;2023-02-23T01:28:55;100316.09;;;6.80;nan
64644;BME280;51056;50.330;7.914;2023-02-23T01:32:00;100316.16;;;6.78;nan
64644;BME280;51056;50.330;7.914;2023-02-23T01:35:04;100314.47;;;6.77;nan
64644;BME280;51056;50.330;7.914;2023-02-23T01:38:09;100316.16;;;6.78;nan
64644;BME280;51056;50.330;7.914;2023-02-23T01:41:12;100317.78;;;6.81;nan
64644;BME280;51056;50.330;7.914;2023-02-23T01:47:20;100313.34;;;6.83;nan
64644;BME280;51056;50.330;7.914;2023-02-23T01:50:25;100318.69;;;6.80;nan
64644;BME280;51056;50.330;7.914;2023-02-23T01:53:32;100307.50;;;6.78;nan
64644;BME280;51056;50.330;7.914;2023-02-23T01:56:39;100313.63;;;6.77;nan
64644;BME280;51056;50.330;7.914;2023-02-23T01:59:48;100311.91;;;6.75;nan
64644;BME280;51056;50.330;7.914;2023-02-23T02:02:52;100309.38;;;6.74;nan
64644;BME280;51056;50.330;7.914;2023-02-23T02:05:58;100306.72;;;6.75;nan
64644;BME280;51056;50.330;7.914;2023-02-23T02:09:07;100311.91;;;6.75;nan
64644;BME280;51056;50.330;7.914;2023-02-23T02:12:12;100304.19;;;6.74;nan
64644;BME280;51056;50.330;7.914;2023-02-23T02:15:21;100301.53;;;6.75;nan
64644;BME280;51056;50.330;7.914;2023-02-23T02:18:36;100305.84;;;6.77;nan
64644;BME280;51056;50.330;7.914;2023-02-23T02:41:48;100290.28;;;6.75;nan
64644;BME280;51056;50.330;7.914;2023-02-23T02:45:07;100287.63;;;6.77;nan
64644;BME280;51056;50.330;7.914;2023-02-23T02:52:03;100291.13;;;6.75;nan
64644;BME280;51056;50.330;7.914;2023-02-23T02:55:22;100286.72;;;6.78;nan
64644;BME280;51056;50.330;7.914;2023-02-23T02:58:28;100277.13;;;6.80;nan
64644;BME280;51056;50.330;7.914;2023-02-23T03:01:31;100275.41;;;6.79;nan
64644;BME280;51056;50.330;7.914;2023-02-23T03:04:53;100278.97;;;6.76;nan
64644;BME280;51056;50.330;7.914;2023-02-23T03:12:22;100272.03;;;6.77;nan
64644;BME280;51056;50.330;7.914;2023-02-23T03:19:25;100275.66;;;6.72;nan
64644;BME280;51056;50.330;7.914;2023-02-23T03:22:59;100283.56;;;6.69;nan
64644;BME280;51056;50.330;7.914;2023-02-23T03:26:31;100276.63;;;6.70;nan
64644;BME280;51056;50.330;7.914;2023-02-23T03:30:17;100282.69;;;6.70;nan
64644;BME280;51056;50.330;7.914;2023-02-23T03:33:52;100284.38;;;6.71;nan
64644;BME280;51056;50.330;7.914;2023-02-23T03:37:27;100285.28;;;6.70;nan
64644;BME280;51056;50.330;7.914;2023-02-23T03:40:52;100286.88;;;6.73;nan
64644;BME280;51056;50.330;7.914;2023-02-23T03:44:21;100281.56;;;6.76;nan
64644;BME280;51056;50.330;7.914;2023-02-23T03:47:44;100280.69;;;6.77;nan
64644;BME280;51056;50.330;7.914;2023-02-23T03:51:08;100278.94;;;6.78;nan
64644;BME280;51056;50.330;7.914;2023-02-23T03:54:54;100288.47;;;6.77;nan
64644;BME280;51056;50.330;7.914;2023-02-23T03:58:21;100277.38;;;6.73;nan
64644;BME280;51056;50.330;7.914;2023-02-23T04:01:45;100286.88;;;6.73;nan
64644;BME280;51056;50.330;7.914;2023-02-23T04:05:14;100281.78;;;6.71;nan
64644;BME280;51056;50.330;7.914;2023-02-23T04:08:40;100289.38;;;6.76;nan
64644;BME280;51056;50.330;7.914;2023-02-23T04:12:16;100289.31;;;6.78;nan
64644;BME280;51056;50.330;7.914;2023-02-23T04:18:54;100293.72;;;6.75;nan
64644;BME280;51056;50.330;7.914;2023-02-23T04:21:57;100296.41;;;6.74;nan
64644;BME280;51056;50.330;7.914;2023-02-23T04:25:00;100287.75;;;6.73;nan
64644;BME280;51056;50.330;7.914;2023-02-23T04:28:04;100303.22;;;6.77;nan
64644;BME280;51056;50.330;7.914;2023-02-23T04:31:07;100296.31;;;6.75;nan
64644;BME280;51056;50.330;7.914;2023-02-23T04:34:10;100296.19;;;6.79;nan
64644;BME280;51056;50.330;7.914;2023-02-23T04:37:14;100302.25;;;6.79;nan
64644;BME280;51056;50.330;7.914;2023-02-23T04:40:17;100303.13;;;6.80;nan
64644;BME280;51056;50.330;7.914;2023-02-23T04:43:20;100303.81;;;6.83;nan
64644;BME280;51056;50.330;7.914;2023-02-23T04:46:23;100298.78;;;6.79;nan
64644;BME280;51056;50.330;7.914;2023-02-23T04:49:27;100303.13;;;6.80;nan
64644;BME280;51056;50.330;7.914;2023-02-23T04:52:31;100301.28;;;6.82;nan
64644;BME280;51056;50.330;7.914;2023-02-23T04:55:34;100299.59;;;6.81;nan
64644;BME280;51056;50.330;7.914;2023-02-23T04:58:37;100304.72;;;6.82;nan
64644;BME280;51056;50.330;7.914;2023-02-23T05:01:41;100300.56;;;6.78;nan
64644;BME280;51056;50.330;7.914;2023-02-23T05:04:44;100298.88;;;6.77;nan
64644;BME280;51056;50.330;7.914;2023-02-23T05:07:47;100303.22;;;6.77;nan
64644;BME280;51056;50.330;7.914;2023-02-23T05:10:51;100299.59;;;6.81;nan
64644;BME280;51056;50.330;7.914;2023-02-23T05:13:54;100299.47;;;6.84;nan
64644;BME280;51056;50.330;7.914;2023-02-23T05:16:58;100302.19;;;6.81;nan
64644;BME280;51056;50.330;7.914;2023-02-23T05:20:01;100305.72;;;6.80;nan
64644;BME280;51056;50.330;7.914;2023-02-23T05:23:04;100301.28;;;6.82;nan
64644;BME280;51056;50.330;7.914;2023-02-23T05:26:10;100302.97;;;6.83;nan
64644;BME280;51056;50.330;7.914;2023-02-23T05:29:14;100306.59;;;6.79;nan
64644;BME280;51056;50.330;7.914;2023-02-23T05:32:17;100307.56;;;6.76;nan
64644;BME280;51056;50.330;7.914;2023-02-23T05:35:20;100299.75;;;6.76;nan
64644;BME280;51056;50.330;7.914;2023-02-23T05:38:27;100299.84;;;6.74;nan
64644;BME280;51056;50.330;7.914;2023-02-23T05:41:30;100310.94;;;6.78;nan
64644;BME280;51056;50.330;7.914;2023-02-23T05:44:33;100306.59;;;6.79;nan
64644;BME280;51056;50.330;7.914;2023-02-23T05:47:36;100311.75;;;6.80;nan
64644;BME280;51056;50.330;7.914;2023-02-23T05:50:43;100303.13;;;6.80;nan
64644;BME280;51056;50.330;7.914;2023-02-23T05:53:46;100310.09;;;6.78;nan
64644;BME280;51056;50.330;7.914;2023-02-23T05:56:49;100315.31;;;6.78;nan
64644;BME280;51056;50.330;7.914;2023-02-23T05:59:53;100317.06;;;6.77;nan
64644;BME280;51056;50.330;7.914;2023-02-23T06:02:57;100317.06;;;6.77;nan
64644;BME280;51056;50.330;7.914;2023-02-23T06:06:02;100316.88;;;6.82;nan
64644;BME280;51056;50.330;7.914;2023-02-23T06:09:06;100317.00;;;6.79;nan
64644;BME280;51056;50.330;7.914;2023-02-23T06:12:09;100312.63;;;6.79;nan
64644;BME280;51056;50.330;7.914;2023-02-23T06:15:12;100310.94;;;6.78;nan
64644;BME280;51056;50.330;7.914;2023-02-23T06:18:15;100314.34;;;6.80;nan
64644;BME280;51056;50.330;7.914;2023-02-23T06:21:19;100321.16;;;6.83;nan
64644;BME280;51056;50.330;7.914;2023-02-23T06:24:24;100316.81;;;6.83;nan
64644;BME280;51056;50.330;7.914;2023-02-23T06:27:30;100325.47;;;6.84;nan
64644;BME280;51056;50.330;7.914;2023-02-23T06:30:34;100325.47;;;6.84;nan
64644;BME280;51056;50.330;7.914;2023-02-23T06:33:37;100331.53;;;6.83;nan
64644;BME280;51056;50.330;7.914;2023-02-23T06:36:41;100331.63;;;6.81;nan
64644;BME280;51056;50.330;7.914;2023-02-23T06:39:44;100333.31;;;6.82;nan
64644;BME280;51056;50.330;7.914;2023-02-23T06:42:47;100334.13;;;6.83;nan
64644;BME280;51056;50.330;7.914;2023-02-23T06:45:51;100339.34;;;6.83;nan
64644;BME280;51056;50.330;7.914;2023-02-23T06:48:58;100337.53;;;6.85;nan
64644;BME280;51056;50.330;7.914;2023-02-23T06:52:02;100340.22;;;6.83;nan
64644;BME280;51056;50.330;7.914;2023-02-23T06:55:06;100343.66;;;6.84;nan
64644;BME280;51056;50.330;7.914;2023-02-23T06:58:09;100344.38;;;6.87;nan
64644;BME280;51056;50.330;7.914;2023-02-23T07:01:14;100350.25;;;6.92;nan
64644;BME280;51056;50.330;7.914;2023-02-23T07:04:47;100354.56;;;6.92;nan
64644;BME280;51056;50.330;7.914;2023-02-23T07:07:50;100349.44;;;6.90;nan
64644;BME280;51056;50.330;7.914;2023-02-23T07:10:55;100355.44;;;6.92;nan
64644;BME280;51056;50.330;7.914;2023-02-23T07:14:01;100353.69;;;6.93;nan
64644;BME280;51056;50.330;7.914;2023-02-23T07:17:06;100361.28;;;6.97;nan
64644;BME280;51056;50.330;7.914;2023-02-23T07:20:10;100359.53;;;6.98;nan
64644;BME280;51056;50.330;7.914;2023-02-23T07:23:15;100363.03;;;6.97;nan
64644;BME280;51056;50.330;7.914;2023-02-23T07:26:18;100364.59;;;7.01;nan
64644;BME280;51056;50.330;7.914;2023-02-23T07:29:22;100367.16;;;7.03;nan
64644;BME280;51056;50.330;7.914;2023-02-23T07:32:25;100379.97;;;7.07;nan
64644;BME280;51056;50.330;7.914;2023-02-23T07:35:29;100381.41;;;7.14;nan
64644;BME280;51056;50.330;7.914;2023-02-23T07:38:32;100387.47;;;7.15;nan
64644;BME280;51056;50.330;7.914;2023-02-23T07:41:35;100388.25;;;7.17;nan
64644;BME280;51056;50.330;7.914;2023-02-23T07:44:39;100387.28;;;7.19;nan
64644;BME280;51056;50.330;7.914;2023-02-23T07:47:43;100390.72;;;7.20;nan
64644;BME280;51056;50.330;7.914;2023-02-23T07:50:46;100389.75;;;7.22;nan
64644;BME280;51056;50.330;7.914;2023-02-23T07:53:49;100396.34;;;7.31;nan
64644;BME280;51056;50.330;7.914;2023-02-23T07:56:55;100396.13;;;7.36;nan
64644;BME280;51056;50.330;7.914;2023-02-23T07:59:58;100398.63;;;7.39;nan
64644;BME280;51056;50.330;7.914;2023-02-23T08:03:02;100399.53;;;7.38;nan
64644;BME280;51056;50.330;7.914;2023-02-23T08:06:07;100395.19;;;7.38;nan
64644;BME280;51056;50.330;7.914;2023-02-23T08:09:10;100397.66;;;7.41;nan
64644;BME280;51056;50.330;7.914;2023-02-23T08:12:14;100399.16;;;7.47;nan
64644;BME280;51056;50.330;7.914;2023-02-23T08:15:18;100394.66;;;7.51;nan
64644;BME280;51056;50.330;7.914;2023-02-23T08:18:23;100401.56;;;7.52;nan
64644;BME280;51056;50.330;7.914;2023-02-23T08:21:27;100401.38;;;7.56;nan
64644;BME280;51056;50.330;7.914;2023-02-23T08:24:36;100402.03;;;7.61;nan
64644;BME280;51056;50.330;7.914;2023-02-23T08:27:46;100400.00;;;7.68;nan
64644;BME280;51056;50.330;7.914;2023-02-23T08:30:51;100397.97;;;7.75;nan
64644;BME280;51056;50.330;7.914;2023-02-23T08:33:55;100397.09;;;7.76;nan
64644;BME280;51056;50.330;7.914;2023-02-23T08:36:58;100400.16;;;7.85;nan
64644;BME280;51056;50.330;7.914;2023-02-23T08:40:02;100393.81;;;7.91;nan
64644;BME280;51056;50.330;7.914;2023-02-23T08:43:06;100398.34;;;8.06;nan
64644;BME280;51056;50.330;7.914;2023-02-23T08:46:09;100402.28;;;7.96;nan
64644;BME280;51056;50.330;7.914;2023-02-23T08:49:13;100406.56;;;8.18;nan
64644;BME280;51056;50.330;7.914;2023-02-23T08:52:19;100407.75;;;8.10;nan
64644;BME280;51056;50.330;7.914;2023-02-23T08:55:23;100411.84;;;7.96;nan
64644;BME280;51056;50.330;7.914;2023-02-23T08:58:27;100410.63;;;8.04;nan
64644;BME280;51056;50.330;7.914;2023-02-23T09:01:32;100411.84;;;7.96;nan
64644;BME280;51056;50.330;7.914;2023-02-23T09:04:36;100417.50;;;8.05;nan
64644;BME280;51056;50.330;7.914;2023-02-23T09:07:39;100415.94;;;8.01;nan
64644;BME280;51056;50.330;7.914;2023-02-23T09:10:46;100417.75;;;7.99;nan
64644;BME280;51056;50.330;7.914;2023-02-23T09:13:50;100414.25;;;8.00;nan
64644;BME280;51056;50.330;7.914;2023-02-23T09:21:03;100409.50;;;8.29;nan
64644;BME280;51056;50.330;7.914;2023-02-23T09:24:08;100414.41;;;8.36;nan
64644;BME280;51056;50.330;7.914;2023-02-23T09:27:11;100415.44;;;8.32;nan
64644;BME280;51056;50.330;7.914;2023-02-23T09:30:15;100417.78;;;8.38;nan
64644;BME280;51056;50.330;7.914;2023-02-23T09:33:19;100424.56;;;8.43;nan
64644;BME280;51056;50.330;7.914;2023-02-23T09:36:24;100418.34;;;8.45;nan
64644;BME280;51056;50.330;7.914;2023-02-23T09:39:27;100430.94;;;8.75;nan
64644;BME280;51056;50.330;7.914;2023-02-23T09:49:28;100428.50;;;9.08;nan
64644;BME280;51056;50.330;7.914;2023-02-23T09:52:41;100435.84;;;9.00;nan
64644;BME280;51056;50.330;7.914;2023-02-23T09:55:47;100437.66;;;9.17;nan
64644;BME280;51056;50.330;7.914;2023-02-23T09:58:55;100438.09;;;9.25;nan
64644;BME280;51056;50.330;7.914;2023-02-23T10:02:02;100437.97;;;9.28;nan
64644;BME280;51056;50.330;7.914;2023-02-23T10:05:09;100434.16;;;9.35;nan
64644;BME280;51056;50.330;7.914;2023-02-23T10:12:19;100442.63;;;9.21;nan
64644;BME280;51056;50.330;7.914;2023-02-23T10:19:05;100442.38;;;9.45;nan
64644;BME280;51056;50.330;7.914;2023-02-23T10:22:10;100443.81;;;9.50;nan
64644;BME280;51056;50.330;7.914;2023-02-23T10:25:22;100442.28;;;9.46;nan
64644;BME280;51056;50.330;7.914;2023-02-23T10:28:33;100449.97;;;9.49;nan
64644;BME280;51056;50.330;7.914;2023-02-23T10:31:45;100453.19;;;9.37;nan
64644;BME280;51056;50.330;7.914;2023-02-23T10:34:53;100451.19;;;9.42;nan
64644;BME280;51056;50.330;7.914;2023-02-23T10:38:00;100454.94;;;9.37;nan
64644;BME280;51056;50.330;7.914;2023-02-23T10:41:04;100456.78;;;9.35;nan
64644;BME280;51056;50.330;7.914;2023-02-23T10:44:16;100465.63;;;9.32;nan
64644;BME280;51056;50.330;7.914;2023-02-23T10:47:22;100460.16;;;9.37;nan
64644;BME280;51056;50.330;7.914;2023-02-23T10:50:28;100473.91;;;9.40;nan
64644;BME280;51056;50.330;7.914;2023-02-23T10:53:34;100466.72;;;9.45;nan
64644;BME280;51056;50.330;7.914;2023-02-23T10:56:45;100471.78;;;9.48;nan
64644;BME280;51056;50.330;7.914;2023-02-23T11:03:15;100471.09;;;9.45;nan
64644;BME280;51056;50.330;7.914;2023-02-23T11:06:36;100468.09;;;9.52;nan
64644;BME280;51056;50.330;7.914;2023-02-23T11:09:44;100469.03;;;9.51;nan
64644;BME280;51056;50.330;7.914;2023-02-23T11:12:48;100470.22;;;9.44;nan
64644;BME280;51056;50.330;7.914;2023-02-23T11:16:00;100475.13;;;9.33;nan
64644;BME280;51056;50.330;7.914;2023-02-23T11:19:08;100479.28;;;9.37;nan
64644;BME280;51056;50.330;7.914;2023-02-23T11:22:22;100467.63;;;9.44;nan
64644;BME280;51056;50.330;7.914;2023-02-23T11:25:29;100472.34;;;9.55;nan
64644;BME280;51056;50.330;7.914;2023-02-23T11:28:36;100464.25;;;9.60;nan
64644;BME280;51056;50.330;7.914;2023-02-23T11:31:55;100469.88;;;9.69;nan
64644;BME280;51056;50.330;7.914;2023-02-23T11:38:29;100462.88;;;9.70;nan
64644;BME280;51056;50.330;7.914;2023-02-23T11:41:35;100455.22;;;9.67;nan
64644;BME280;51056;50.330;7.914;2023-02-23T11:44:41;100460.75;;;9.61;nan
64644;BME280;51056;50.330;7.914;2023-02-23T11:47:47;100454.81;;;9.57;nan
64644;BME280;51056;50.330;7.914;2023-02-23T11:50:55;100450.47;;;9.58;nan
64644;BME280;51056;50.330;7.914;2023-02-23T11:54:00;100451.16;;;9.61;nan
64644;BME280;51056;50.330;7.914;2023-02-23T11:57:05;100447.91;;;9.56;nan
64644;BME280;51056;50.330;7.914;2023-02-23T12:00:12;100449.03;;;9.50;nan
64644;BME280;51056;50.330;7.914;2023-02-23T12:03:24;100447.91;;;9.56;nan
64644;BME280;51056;50.330;7.914;2023-02-23T12:06:39;100451.44;;;9.55;nan
64644;BME280;51056;50.330;7.914;2023-02-23T12:09:48;100450.31;;;9.61;nan
64644;BME280;51056;50.330;7.914;2023-02-23T12:13:02;100446.06;;;9.58;nan
64644;BME280;51056;50.330;7.914;2023-02-23T12:16:25;100448.91;;;9.53;nan
64644;BME280;51056;50.330;7.914;2023-02-23T12:19:36;100445.47;;;9.70;nan
64644;BME280;51056;50.330;7.914;2023-02-23T12:22:46;100444.16;;;9.96;nan
64644;BME280;51056;50.330;7.914;2023-02-23T12:26:20;100443.38;;;10.12;nan
64644;BME280;51056;50.330;7.914;2023-02-23T12:29:36;100440.44;;;10.18;nan
64644;BME280;51056;50.330;7.914;2023-02-23T12:33:00;100437.81;;;10.35;nan
64644;BME280;51056;50.330;7.914;2023-02-23T12:39:31;100437.03;;;10.66;nan
64644;BME280;51056;50.330;7.914;2023-02-23T12:46:35;100425.03;;;10.78;nan
64644;BME280;51056;50.330;7.914;2023-02-23T12:50:41;100421.69;;;10.76;nan
64644;BME280;51056;50.330;7.914;2023-02-23T12:53:56;100425.22;;;10.75;nan
64644;BME280;51056;50.330;7.914;2023-02-23T12:57:20;100415.63;;;10.76;nan
64644;BME280;51056;50.330;7.914;2023-02-23T13:00:37;100415.69;;;10.74;nan
64644;BME280;51056;50.330;7.914;2023-02-23T13:17:39;100404.81;;;10.98;nan
64644;BME280;51056;50.330;7.914;2023-02-23T13:20:50;100404.56;;;10.86;nan
64644;BME280;51056;50.330;7.914;2023-02-23T13:24:16;100413.66;;;11.11;nan
64644;BME280;51056;50.330;7.914;2023-02-23T13:27:41;100409.59;;;11.21;nan
64644;BME280;51056;50.330;7.914;2023-02-23T13:30:52;100398.53;;;11.16;nan
64644;BME280;51056;50.330;7.914;2023-02-23T13:33:57;100409.34;;;11.10;nan
64644;BME280;51056;50.330;7.914;2023-02-23T13:37:04;100406.66;;;10.96;nan
64644;BME280;51056;50.330;7.914;2023-02-23T13:43:37;100407.66;;;10.93;nan
64644;BME280;51056;50.330;7.914;2023-02-23T13:46:49;100406.41;;;10.84;nan
64644;BME280;51056;50.330;7.914;2023-02-23T13:50:09;100411.56;;;10.70;nan
64644;BME280;51056;50.330;7.914;2023-02-23T13:56:53;100404.97;;;10.63;nan
64644;BME280;51056;50.330;7.914;2023-02-23T14:00:00;100416.00;;;10.68;nan
64644;BME280;51056;50.330;7.914;2023-02-23T14:03:07;100413.41;;;10.68;nan
64644;BME280;51056;50.330;7.914;2023-02-23T14:06:23;100405.31;;;10.88;nan
64644;BME280;51056;50.330;7.914;2023-02-23T14:09:36;100406.31;;;10.86;nan
64644;BME280;51056;50.330;7.914;2023-02-23T14:16:30;100410.03;;;10.66;nan
64644;BME280;51056;50.330;7.914;2023-02-23T14:34:18;100419.03;;;10.44;nan
64644;BME280;51056;50.330;7.914;2023-02-23T14:37:11;100421.00;;;10.57;nan
64644;BME280;51056;50.330;7.914;2023-02-23T14:41:46;100421.00;;;10.57;nan
64644;BME280;51056;50.330;7.914;2023-02-23T14:44:53;100422.50;;;10.45;nan
64644;BME280;51056;50.330;7.914;2023-02-23T14:48:04;100412.66;;;10.50;nan
64644;BME280;51056;50.330;7.914;2023-02-23T14:51:21;100427.53;;;10.32;nan
64644;BME280;51056;50.330;7.914;2023-02-23T14:54:30;100426.06;;;10.27;nan
64644;BME280;51056;50.330;7.914;2023-02-23T14:57:36;100428.19;;;10.36;nan
64644;BME280;51056;50.330;7.914;2023-02-23T15:00:42;100423.22;;;10.31;nan
64644;BME280;51056;50.330;7.914;2023-02-23T15:04:10;100422.47;;;10.29;nan
64644;BME280;51056;50.330;7.914;2023-02-23T15:07:25;100423.69;;;10.22;nan
64644;BME280;51056;50.330;7.914;2023-02-23T15:10:42;100430.00;;;10.18;nan
64644;BME280;51056;50.330;7.914;2023-02-23T15:13:47;100432.78;;;10.15;nan
64644;BME280;51056;50.330;7.914;2023-02-23T15:16:54;100437.22;;;10.13;nan
64644;BME280;51056;50.330;7.914;2023-02-23T15:20:01;100427.09;;;10.07;nan
64644;BME280;51056;50.330;7.914;2023-02-23T15:23:06;100430.63;;;10.06;nan
64644;BME280;51056;50.330;7.914;2023-02-23T15:26:33;100434.28;;;10.01;nan
64644;BME280;51056;50.330;7.914;2023-02-23T15:29:36;100435.84;;;10.06;nan
64644;BME280;51056;50.330;7.914;2023-02-23T15:32:40;100434.91;;;10.07;nan
64644;BME280;51056;50.330;7.914;2023-02-23T15:35:49;100430.69;;;10.04;nan
64644;BME280;51056;50.330;7.914;2023-02-23T15:38:55;100441.75;;;10.09;nan
64644;BME280;51056;50.330;7.914;2023-02-23T15:42:02;100445.53;;;10.04;nan
64644;BME280;51056;50.330;7.914;2023-02-23T15:45:24;100449.59;;;10.09;nan
64644;BME280;51056;50.330;7.914;2023-02-23T15:48:47;100444.53;;;10.06;nan
64644;BME280;51056;50.330;7.914;2023-02-23T15:51:57;100453.97;;;10.09;nan
64644;BME280;51056;50.330;7.914;2023-02-23T15:55:05;100452.28;;;10.08;nan
64644;BME280;51056;50.330;7.914;2023-02-23T16:02:19;100454.13;;;10.06;nan
64644;BME280;51056;50.330;7.914;2023-02-23T16:05:27;100457.38;;;9.93;nan
64644;BME280;51056;50.330;7.914;2023-02-23T16:08:35;100453.09;;;9.92;nan
64644;BME280;51056;50.330;7.914;2023-02-23T16:11:38;100446.94;;;9.93;nan
64644;BME280;51056;50.330;7.914;2023-02-23T16:15:26;100450.28;;;9.95;nan
64644;BME280;51056;50.330;7.914;2023-02-23T16:18:38;100454.59;;;9.96;nan
64644;BME280;51056;50.330;7.914;2023-02-23T16:22:37;100449.44;;;9.95;nan
64644;BME280;51056;50.330;7.914;2023-02-23T16:25:36;100456.53;;;9.93;nan
64644;BME280;51056;50.330;7.914;2023-02-23T16:28:40;100462.44;;;9.96;nan
64644;BME280;51056;50.330;7.914;2023-02-23T16:32:02;100461.75;;;9.93;nan
64644;BME280;51056;50.330;7.914;2023-02-23T16:35:14;100460.91;;;9.92;nan
64644;BME280;51056;50.330;7.914;2023-02-23T16:38:29;100460.13;;;9.90;nan
64644;BME280;51056;50.330;7.914;2023-02-23T16:41:37;100464.03;;;9.82;nan
64644;BME280;51056;50.330;7.914;2023-02-23T16:44:43;100460.34;;;9.86;nan
64644;BME280;51056;50.330;7.914;2023-02-23T16:47:50;100460.50;;;9.83;nan
64644;BME280;51056;50.330;7.914;2023-02-23T16:51:10;100466.50;;;9.85;nan
64644;BME280;51056;50.330;7.914;2023-02-23T16:54:15;100456.22;;;9.82;nan
64644;BME280;51056;50.330;7.914;2023-02-23T16:57:20;100465.19;;;9.76;nan
64644;BME280;51056;50.330;7.914;2023-02-23T17:00:30;100474.09;;;9.54;nan
64644;BME280;51056;50.330;7.914;2023-02-23T17:03:33;100478.22;;;9.41;nan
64644;BME280;51056;50.330;7.914;2023-02-23T17:06:36;100477.00;;;9.48;nan
64644;BME280;51056;50.330;7.914;2023-02-23T17:09:40;100477.75;;;9.50;nan
64644;BME280;51056;50.330;7.914;2023-02-23T17:12:43;100483.28;;;9.44;nan
64644;BME280;51056;50.330;7.914;2023-02-23T17:15:50;100480.22;;;9.53;nan
64644;BME280;51056;50.330;7.914;2023-02-23T17:18:55;100486.13;;;9.57;nan
64644;BME280;51056;50.330;7.914;2023-02-23T17:22:01;100489.63;;;9.58;nan
64644;BME280;51056;50.330;7.914;2023-02-23T17:25:05;100490.38;;;9.60;nan
64644;BME280;51056;50.330;7.914;2023-02-23T17:28:08;100494.34;;;9.49;nan
64644;BME280;51056;50.330;7.914;2023-02-23T17:31:13;100497.50;;;9.20;nan
64644;BME280;51056;50.330;7.914;2023-02-23T17:34:17;100498.34;;;9.01;nan
64644;BME280;51056;50.330;7.914;2023-02-23T17:37:21;100507.94;;;9.20;nan
64644;BME280;51056;50.330;7.914;2023-02-23T17:40:27;100496.16;;;9.30;nan
64644;BME280;51056;50.330;7.914;2023-02-23T17:43:31;100492.56;;;9.14;nan
64644;BME280;51056;50.330;7.914;2023-02-23T17:46:35;100493.78;;;9.25;nan
64644;BME280;51056;50.330;7.914;2023-02-23T17:49:38;100490.84;;;9.31;nan
64644;BME280;51056;50.330;7.914;2023-02-23T17:52:41;100490.63;;;9.36;nan
64644;BME280;51056;50.330;7.914;2023-02-23T17:55:45;100486.28;;;9.18;nan
64644;BME280;51056;50.330;7.914;2023-02-23T17:58:49;100491.50;;;9.18;nan
64644;BME280;51056;50.330;7.914;2023-02-23T18:01:53;100480.09;;;9.20;nan
64644;BME280;51056;50.330;7.914;2023-02-23T18:04:56;100483.25;;;9.27;nan
64644;BME280;51056;50.330;7.914;2023-02-23T18:07:59;100484.09;;;9.27;nan
64644;BME280;51056;50.330;7.914;2023-02-23T18:11:03;100484.78;;;9.31;nan
64644;BME280;51056;50.330;7.914;2023-02-23T18:14:08;100491.84;;;9.29;nan
64644;BME280;51056;50.330;7.914;2023-02-23T18:17:55;100496.94;;;9.32;nan
64644;BME280;51056;50.330;7.914;2023-02-23T18:21:12;100496.94;;;9.32;nan
64644;BME280;51056;50.330;7.914;2023-02-23T18:24:16;100496.00;;;9.33;nan
64644;BME280;51056;50.330;7.914;2023-02-23T18:27:19;100490.16;;;9.28;nan
64644;BME280;51056;50.330;7.914;2023-02-23T18:30:23;100492.91;;;9.25;nan
64644;BME280;51056;50.330;7.914;2023-02-23T18:33:29;100486.09;;;9.22;nan
64644;BME280;51056;50.330;7.914;2023-02-23T18:36:35;100489.72;;;9.18;nan
64644;BME280;51056;50.330;7.914;2023-02-23T18:39:40;100482.84;;;9.17;nan
64644;BME280;51056;50.330;7.914;2023-02-23T18:42:45;100481.16;;;9.16;nan
64644;BME280;51056;50.330;7.914;2023-02-23T18:45:48;100491.59;;;9.16;nan
64644;BME280;51056;50.330;7.914;2023-02-23T18:48:51;100496.88;;;9.15;nan
64644;BME280;51056;50.330;7.914;2023-02-23T18:51:56;100481.44;;;9.10;nan
64644;BME280;51056;50.330;7.914;2023-02-23T18:54:59;100489.31;;;9.08;nan
64644;BME280;51056;50.330;7.914;2023-02-23T18:58:03;100486.84;;;9.05;nan
64644;BME280;51056;50.330;7.914;2023-02-23T19:01:11;100493.56;;;8.92;nan